sensor_id;sensor_type;location;lat;lon;timestamp;P1;durP1;ratioP1;P2;durP2;ratioP2
21034;SDS011;10676;50.848;3.272;2022-09-17T00:00:56;14.00;;;6.35;;
21034;SDS011;10676;50.848;3.272;2022-09-17T00:03:23;17.67;;;9.65;;
21034;SDS011;10676;50.848;3.272;2022-09-17T00:05:55;25.63;;;11.18;;
21034;SDS011;10676;50.848;3.272;2022-09-17T00:08:24;29.10;;;20.00;;
21034;SDS011;10676;50.848;3.272;2022-09-17T00:10:50;16.63;;;15.20;;
21034;SDS011;10676;50.848;3.272;2022-09-17T00:13:16;20.85;;;18.98;;
21034;SDS011;10676;50.848;3.272;2022-09-17T00:15:42;18.20;;;16.15;;
21034;SDS011;10676;50.848;3.272;2022-09-17T00:18:09;19.63;;;17.85;;
21034;SDS011;10676;50.848;3.272;2022-09-17T00:20:37;23.80;;;21.90;;
21034;SDS011;10676;50.848;3.272;2022-09-17T00:23:07;28.55;;;26.25;;
21034;SDS011;10676;50.848;3.272;2022-09-17T00:25:33;28.65;;;26.25;;
21034;SDS011;10676;50.848;3.272;2022-09-17T00:28:05;35.50;;;32.42;;
21034;SDS011;10676;50.848;3.272;2022-09-17T00:30:31;32.53;;;25.77;;
21034;SDS011;10676;50.848;3.272;2022-09-17T00:32:56;26.88;;;24.40;;
21034;SDS011;10676;50.848;3.272;2022-09-17T00:35:25;28.48;;;25.85;;
21034;SDS011;10676;50.848;3.272;2022-09-17T00:37:52;33.40;;;29.95;;
21034;SDS011;10676;50.848;3.272;2022-09-17T00:40:18;32.90;;;30.17;;
21034;SDS011;10676;50.848;3.272;2022-09-17T00:42:44;32.33;;;29.55;;
21034;SDS011;10676;50.848;3.272;2022-09-17T00:45:10;33.33;;;29.95;;
21034;SDS011;10676;50.848;3.272;2022-09-17T00:47:38;31.25;;;28.13;;
21034;SDS011;10676;50.848;3.272;2022-09-17T00:50:15;31.35;;;28.02;;
21034;SDS011;10676;50.848;3.272;2022-09-17T00:52:49;31.92;;;28.77;;
21034;SDS011;10676;50.848;3.272;2022-09-17T00:58:07;30.75;;;28.13;;
21034;SDS011;10676;50.848;3.272;2022-09-17T01:00:35;29.88;;;27.30;;
21034;SDS011;10676;50.848;3.272;2022-09-17T01:03:01;31.92;;;28.80;;
21034;SDS011;10676;50.848;3.272;2022-09-17T01:05:48;33.25;;;29.92;;
21034;SDS011;10676;50.848;3.272;2022-09-17T01:16:52;30.83;;;28.40;;
21034;SDS011;10676;50.848;3.272;2022-09-17T01:31:02;29.23;;;26.52;;
21034;SDS011;10676;50.848;3.272;2022-09-17T01:36:15;30.30;;;27.45;;
21034;SDS011;10676;50.848;3.272;2022-09-17T01:38:53;30.85;;;27.58;;
21034;SDS011;10676;50.848;3.272;2022-09-17T01:42:18;30.30;;;27.80;;
21034;SDS011;10676;50.848;3.272;2022-09-17T01:47:37;33.75;;;30.50;;
21034;SDS011;10676;50.848;3.272;2022-09-17T01:50:12;33.00;;;29.95;;
21034;SDS011;10676;50.848;3.272;2022-09-17T01:52:43;32.03;;;28.55;;
21034;SDS011;10676;50.848;3.272;2022-09-17T01:55:12;41.33;;;29.80;;
21034;SDS011;10676;50.848;3.272;2022-09-17T01:57:51;30.40;;;27.15;;
21034;SDS011;10676;50.848;3.272;2022-09-17T02:00:20;34.83;;;26.23;;
21034;SDS011;10676;50.848;3.272;2022-09-17T02:03:01;30.70;;;23.85;;
21034;SDS011;10676;50.848;3.272;2022-09-17T02:05:45;35.38;;;23.10;;
21034;SDS011;10676;50.848;3.272;2022-09-17T02:08:17;33.97;;;20.70;;
21034;SDS011;10676;50.848;3.272;2022-09-17T02:10:54;32.40;;;18.60;;
21034;SDS011;10676;50.848;3.272;2022-09-17T02:13:33;26.95;;;16.90;;
21034;SDS011;10676;50.848;3.272;2022-09-17T02:16:27;20.00;;;16.60;;
21034;SDS011;10676;50.848;3.272;2022-09-17T02:18:55;19.48;;;16.63;;
21034;SDS011;10676;50.848;3.272;2022-09-17T02:24:16;29.67;;;13.70;;
21034;SDS011;10676;50.848;3.272;2022-09-17T02:26:44;24.95;;;11.50;;
21034;SDS011;10676;50.848;3.272;2022-09-17T02:29:25;15.60;;;8.80;;
21034;SDS011;10676;50.848;3.272;2022-09-17T02:31:56;22.20;;;6.97;;
21034;SDS011;10676;50.848;3.272;2022-09-17T02:34:22;17.08;;;6.78;;
21034;SDS011;10676;50.848;3.272;2022-09-17T02:36:49;20.30;;;12.50;;
21034;SDS011;10676;50.848;3.272;2022-09-17T02:39:16;23.73;;;11.48;;
21034;SDS011;10676;50.848;3.272;2022-09-17T02:41:44;25.02;;;11.93;;
21034;SDS011;10676;50.848;3.272;2022-09-17T02:47:15;16.00;;;11.63;;
21034;SDS011;10676;50.848;3.272;2022-09-17T02:58:06;23.77;;;11.25;;
21034;SDS011;10676;50.848;3.272;2022-09-17T03:00:42;25.42;;;10.00;;
21034;SDS011;10676;50.848;3.272;2022-09-17T03:05:46;21.73;;;10.27;;
21034;SDS011;10676;50.848;3.272;2022-09-17T03:08:12;26.77;;;10.70;;
21034;SDS011;10676;50.848;3.272;2022-09-17T03:10:38;18.48;;;12.52;;
21034;SDS011;10676;50.848;3.272;2022-09-17T03:13:05;19.25;;;12.05;;
21034;SDS011;10676;50.848;3.272;2022-09-17T03:15:31;22.30;;;11.95;;
21034;SDS011;10676;50.848;3.272;2022-09-17T03:17:57;32.30;;;22.92;;
21034;SDS011;10676;50.848;3.272;2022-09-17T03:20:22;27.92;;;23.88;;
21034;SDS011;10676;50.848;3.272;2022-09-17T03:22:50;29.90;;;26.75;;
21034;SDS011;10676;50.848;3.272;2022-09-17T03:25:16;33.83;;;23.73;;
21034;SDS011;10676;50.848;3.272;2022-09-17T03:27:42;31.75;;;25.10;;
21034;SDS011;10676;50.848;3.272;2022-09-17T03:30:07;32.80;;;27.50;;
21034;SDS011;10676;50.848;3.272;2022-09-17T03:32:33;27.67;;;23.20;;
21034;SDS011;10676;50.848;3.272;2022-09-17T03:34:59;25.52;;;19.65;;
21034;SDS011;10676;50.848;3.272;2022-09-17T03:37:24;24.88;;;20.70;;
21034;SDS011;10676;50.848;3.272;2022-09-17T03:39:50;19.38;;;17.38;;
21034;SDS011;10676;50.848;3.272;2022-09-17T03:42:16;21.00;;;15.73;;
21034;SDS011;10676;50.848;3.272;2022-09-17T03:44:42;14.75;;;13.48;;
21034;SDS011;10676;50.848;3.272;2022-09-17T03:47:07;18.10;;;13.70;;
21034;SDS011;10676;50.848;3.272;2022-09-17T03:49:33;17.10;;;14.40;;
21034;SDS011;10676;50.848;3.272;2022-09-17T03:51:59;18.08;;;16.00;;
21034;SDS011;10676;50.848;3.272;2022-09-17T03:54:24;21.30;;;15.75;;
21034;SDS011;10676;50.848;3.272;2022-09-17T03:56:50;18.13;;;16.10;;
21034;SDS011;10676;50.848;3.272;2022-09-17T03:59:16;19.73;;;15.52;;
21034;SDS011;10676;50.848;3.272;2022-09-17T04:01:41;20.60;;;17.23;;
21034;SDS011;10676;50.848;3.272;2022-09-17T04:04:07;20.58;;;17.45;;
21034;SDS011;10676;50.848;3.272;2022-09-17T04:06:33;23.67;;;20.13;;
21034;SDS011;10676;50.848;3.272;2022-09-17T04:08:59;22.83;;;19.88;;
21034;SDS011;10676;50.848;3.272;2022-09-17T04:11:29;23.55;;;21.33;;
21034;SDS011;10676;50.848;3.272;2022-09-17T04:13:55;23.13;;;20.88;;
21034;SDS011;10676;50.848;3.272;2022-09-17T04:16:20;30.83;;;20.77;;
21034;SDS011;10676;50.848;3.272;2022-09-17T04:18:46;24.73;;;22.08;;
21034;SDS011;10676;50.848;3.272;2022-09-17T04:21:12;24.45;;;22.10;;
21034;SDS011;10676;50.848;3.272;2022-09-17T04:23:37;28.45;;;26.08;;
21034;SDS011;10676;50.848;3.272;2022-09-17T04:26:03;30.23;;;27.15;;
21034;SDS011;10676;50.848;3.272;2022-09-17T04:28:29;26.63;;;24.30;;
21034;SDS011;10676;50.848;3.272;2022-09-17T04:30:54;23.67;;;21.88;;
21034;SDS011;10676;50.848;3.272;2022-09-17T04:33:21;22.60;;;21.00;;
21034;SDS011;10676;50.848;3.272;2022-09-17T04:35:47;15.95;;;14.85;;
21034;SDS011;10676;50.848;3.272;2022-09-17T04:38:13;13.88;;;12.90;;
21034;SDS011;10676;50.848;3.272;2022-09-17T04:40:42;13.35;;;12.65;;
21034;SDS011;10676;50.848;3.272;2022-09-17T04:43:08;34.22;;;25.38;;
21034;SDS011;10676;50.848;3.272;2022-09-17T04:45:34;15.60;;;14.48;;
21034;SDS011;10676;50.848;3.272;2022-09-17T04:48:00;14.02;;;12.98;;
21034;SDS011;10676;50.848;3.272;2022-09-17T04:50:26;14.02;;;13.00;;
21034;SDS011;10676;50.848;3.272;2022-09-17T04:52:52;13.70;;;12.05;;
21034;SDS011;10676;50.848;3.272;2022-09-17T04:55:22;16.05;;;14.52;;
21034;SDS011;10676;50.848;3.272;2022-09-17T04:57:48;13.82;;;12.43;;
21034;SDS011;10676;50.848;3.272;2022-09-17T05:00:16;14.07;;;11.35;;
21034;SDS011;10676;50.848;3.272;2022-09-17T05:02:47;14.23;;;11.13;;
21034;SDS011;10676;50.848;3.272;2022-09-17T05:05:15;12.10;;;10.15;;
21034;SDS011;10676;50.848;3.272;2022-09-17T05:07:42;12.88;;;9.15;;
21034;SDS011;10676;50.848;3.272;2022-09-17T05:10:09;16.85;;;9.75;;
21034;SDS011;10676;50.848;3.272;2022-09-17T05:12:36;13.25;;;9.48;;
21034;SDS011;10676;50.848;3.272;2022-09-17T05:15:02;12.70;;;9.70;;
21034;SDS011;10676;50.848;3.272;2022-09-17T05:17:28;12.30;;;9.75;;
21034;SDS011;10676;50.848;3.272;2022-09-17T05:19:54;14.15;;;9.80;;
21034;SDS011;10676;50.848;3.272;2022-09-17T05:22:20;15.38;;;10.23;;
21034;SDS011;10676;50.848;3.272;2022-09-17T05:24:45;15.60;;;9.10;;
21034;SDS011;10676;50.848;3.272;2022-09-17T05:27:11;11.77;;;9.20;;
21034;SDS011;10676;50.848;3.272;2022-09-17T05:29:37;15.77;;;8.48;;
21034;SDS011;10676;50.848;3.272;2022-09-17T05:32:04;18.23;;;8.80;;
21034;SDS011;10676;50.848;3.272;2022-09-17T05:34:30;12.25;;;9.13;;
21034;SDS011;10676;50.848;3.272;2022-09-17T05:36:56;16.50;;;8.05;;
21034;SDS011;10676;50.848;3.272;2022-09-17T05:39:22;16.60;;;8.23;;
21034;SDS011;10676;50.848;3.272;2022-09-17T05:41:52;19.52;;;8.38;;
21034;SDS011;10676;50.848;3.272;2022-09-17T05:44:19;18.77;;;8.55;;
21034;SDS011;10676;50.848;3.272;2022-09-17T05:46:46;21.10;;;8.50;;
21034;SDS011;10676;50.848;3.272;2022-09-17T05:49:12;18.88;;;7.43;;
21034;SDS011;10676;50.848;3.272;2022-09-17T05:51:39;17.88;;;7.82;;
21034;SDS011;10676;50.848;3.272;2022-09-17T05:54:07;23.15;;;8.15;;
21034;SDS011;10676;50.848;3.272;2022-09-17T05:56:33;17.75;;;7.65;;
21034;SDS011;10676;50.848;3.272;2022-09-17T05:58:59;10.50;;;6.97;;
21034;SDS011;10676;50.848;3.272;2022-09-17T06:01:25;19.45;;;7.72;;
21034;SDS011;10676;50.848;3.272;2022-09-17T06:03:50;15.13;;;7.93;;
21034;SDS011;10676;50.848;3.272;2022-09-17T06:06:16;17.38;;;7.20;;
21034;SDS011;10676;50.848;3.272;2022-09-17T06:08:42;17.60;;;6.68;;
21034;SDS011;10676;50.848;3.272;2022-09-17T06:11:07;13.10;;;6.97;;
21034;SDS011;10676;50.848;3.272;2022-09-17T06:13:33;13.95;;;6.35;;
21034;SDS011;10676;50.848;3.272;2022-09-17T06:16:00;21.08;;;7.53;;
21034;SDS011;10676;50.848;3.272;2022-09-17T06:18:29;15.00;;;6.85;;
21034;SDS011;10676;50.848;3.272;2022-09-17T06:20:56;14.77;;;6.78;;
21034;SDS011;10676;50.848;3.272;2022-09-17T06:23:23;24.48;;;9.18;;
21034;SDS011;10676;50.848;3.272;2022-09-17T06:25:57;13.70;;;9.93;;
21034;SDS011;10676;50.848;3.272;2022-09-17T06:28:24;15.63;;;9.57;;
21034;SDS011;10676;50.848;3.272;2022-09-17T06:30:50;13.98;;;7.85;;
21034;SDS011;10676;50.848;3.272;2022-09-17T06:33:21;19.55;;;9.07;;
21034;SDS011;10676;50.848;3.272;2022-09-17T06:35:47;23.05;;;10.27;;
21034;SDS011;10676;50.848;3.272;2022-09-17T06:38:13;17.40;;;10.55;;
21034;SDS011;10676;50.848;3.272;2022-09-17T06:40:39;16.30;;;7.90;;
21034;SDS011;10676;50.848;3.272;2022-09-17T06:43:05;18.63;;;8.43;;
21034;SDS011;10676;50.848;3.272;2022-09-17T06:45:31;20.00;;;9.13;;
21034;SDS011;10676;50.848;3.272;2022-09-17T06:47:57;17.23;;;8.82;;
21034;SDS011;10676;50.848;3.272;2022-09-17T06:50:27;20.75;;;9.82;;
21034;SDS011;10676;50.848;3.272;2022-09-17T06:52:53;17.75;;;9.63;;
21034;SDS011;10676;50.848;3.272;2022-09-17T06:55:19;20.98;;;8.63;;
21034;SDS011;10676;50.848;3.272;2022-09-17T06:57:45;25.85;;;9.05;;
21034;SDS011;10676;50.848;3.272;2022-09-17T07:00:11;19.88;;;9.43;;
21034;SDS011;10676;50.848;3.272;2022-09-17T07:02:38;13.18;;;8.75;;
21034;SDS011;10676;50.848;3.272;2022-09-17T07:05:05;16.80;;;8.38;;
21034;SDS011;10676;50.848;3.272;2022-09-17T07:07:31;18.38;;;9.07;;
21034;SDS011;10676;50.848;3.272;2022-09-17T07:09:59;18.83;;;8.93;;
21034;SDS011;10676;50.848;3.272;2022-09-17T07:12:25;18.20;;;9.07;;
21034;SDS011;10676;50.848;3.272;2022-09-17T07:14:51;19.85;;;9.57;;
21034;SDS011;10676;50.848;3.272;2022-09-17T07:17:17;22.80;;;9.20;;
21034;SDS011;10676;50.848;3.272;2022-09-17T07:19:43;23.17;;;8.93;;
21034;SDS011;10676;50.848;3.272;2022-09-17T07:22:09;19.15;;;8.23;;
21034;SDS011;10676;50.848;3.272;2022-09-17T07:24:35;17.13;;;7.40;;
21034;SDS011;10676;50.848;3.272;2022-09-17T07:27:00;16.60;;;6.32;;
21034;SDS011;10676;50.848;3.272;2022-09-17T07:29:26;21.33;;;5.35;;
21034;SDS011;10676;50.848;3.272;2022-09-17T07:31:52;17.55;;;5.32;;
21034;SDS011;10676;50.848;3.272;2022-09-17T07:34:18;13.93;;;5.15;;
21034;SDS011;10676;50.848;3.272;2022-09-17T07:36:44;11.63;;;5.30;;
21034;SDS011;10676;50.848;3.272;2022-09-17T07:39:10;11.45;;;4.97;;
21034;SDS011;10676;50.848;3.272;2022-09-17T07:41:37;12.10;;;4.25;;
21034;SDS011;10676;50.848;3.272;2022-09-17T07:44:03;9.85;;;5.22;;
21034;SDS011;10676;50.848;3.272;2022-09-17T07:46:34;10.07;;;4.40;;
21034;SDS011;10676;50.848;3.272;2022-09-17T07:49:00;10.45;;;5.88;;
21034;SDS011;10676;50.848;3.272;2022-09-17T07:51:26;13.00;;;6.78;;
21034;SDS011;10676;50.848;3.272;2022-09-17T07:53:56;12.90;;;6.43;;
21034;SDS011;10676;50.848;3.272;2022-09-17T07:56:23;12.85;;;7.03;;
21034;SDS011;10676;50.848;3.272;2022-09-17T07:58:50;12.48;;;8.57;;
21034;SDS011;10676;50.848;3.272;2022-09-17T08:01:16;11.73;;;8.05;;
21034;SDS011;10676;50.848;3.272;2022-09-17T08:03:46;11.30;;;8.93;;
21034;SDS011;10676;50.848;3.272;2022-09-17T08:06:13;11.73;;;7.22;;
21034;SDS011;10676;50.848;3.272;2022-09-17T08:08:41;9.90;;;8.25;;
21034;SDS011;10676;50.848;3.272;2022-09-17T08:11:08;13.30;;;7.68;;
21034;SDS011;10676;50.848;3.272;2022-09-17T08:13:46;12.90;;;8.55;;
21034;SDS011;10676;50.848;3.272;2022-09-17T08:16:13;11.85;;;10.50;;
21034;SDS011;10676;50.848;3.272;2022-09-17T08:18:39;14.45;;;10.05;;
21034;SDS011;10676;50.848;3.272;2022-09-17T08:21:07;17.48;;;15.40;;
21034;SDS011;10676;50.848;3.272;2022-09-17T08:23:35;14.07;;;12.80;;
21034;SDS011;10676;50.848;3.272;2022-09-17T08:26:03;14.50;;;13.18;;
21034;SDS011;10676;50.848;3.272;2022-09-17T08:28:31;17.48;;;13.05;;
21034;SDS011;10676;50.848;3.272;2022-09-17T08:31:00;14.02;;;12.88;;
21034;SDS011;10676;50.848;3.272;2022-09-17T08:33:31;17.23;;;15.82;;
21034;SDS011;10676;50.848;3.272;2022-09-17T08:35:58;35.85;;;32.92;;
21034;SDS011;10676;50.848;3.272;2022-09-17T08:38:24;41.88;;;38.30;;
21034;SDS011;10676;50.848;3.272;2022-09-17T08:46:55;18.17;;;16.77;;
21034;SDS011;10676;50.848;3.272;2022-09-17T09:00:21;15.30;;;14.10;;
21034;SDS011;10676;50.848;3.272;2022-09-17T09:09:00;20.27;;;18.98;;
21034;SDS011;10676;50.848;3.272;2022-09-17T09:11:02;18.20;;;16.63;;
21034;SDS011;10676;50.848;3.272;2022-09-17T09:13:34;23.85;;;22.02;;
21034;SDS011;10676;50.848;3.272;2022-09-17T09:16:05;17.67;;;16.35;;
21034;SDS011;10676;50.848;3.272;2022-09-17T09:18:58;13.75;;;12.68;;
21034;SDS011;10676;50.848;3.272;2022-09-17T09:22:08;15.07;;;13.85;;
21034;SDS011;10676;50.848;3.272;2022-09-17T09:24:40;13.65;;;12.65;;
21034;SDS011;10676;50.848;3.272;2022-09-17T09:27:27;13.35;;;12.00;;
21034;SDS011;10676;50.848;3.272;2022-09-17T09:30:08;12.90;;;11.98;;
21034;SDS011;10676;50.848;3.272;2022-09-17T09:35:27;12.82;;;10.18;;
21034;SDS011;10676;50.848;3.272;2022-09-17T09:40:53;15.38;;;14.13;;
21034;SDS011;10676;50.848;3.272;2022-09-17T09:48:50;15.85;;;14.63;;
21034;SDS011;10676;50.848;3.272;2022-09-17T09:51:31;1999.90;;;999.90;;
21034;SDS011;10676;50.848;3.272;2022-09-17T09:56:56;1999.90;;;999.90;;
21034;SDS011;10676;50.848;3.272;2022-09-17T09:59:26;1999.90;;;999.90;;
21034;SDS011;10676;50.848;3.272;2022-09-17T10:01:52;15.60;;;14.45;;
21034;SDS011;10676;50.848;3.272;2022-09-17T10:04:22;15.55;;;14.38;;
21034;SDS011;10676;50.848;3.272;2022-09-17T10:06:51;21.15;;;19.60;;
21034;SDS011;10676;50.848;3.272;2022-09-17T10:09:19;14.35;;;13.20;;
21034;SDS011;10676;50.848;3.272;2022-09-17T10:14:26;41.08;;;37.80;;
21034;SDS011;10676;50.848;3.272;2022-09-17T10:17:09;16.70;;;15.30;;
21034;SDS011;10676;50.848;3.272;2022-09-17T10:19:46;15.75;;;14.60;;
21034;SDS011;10676;50.848;3.272;2022-09-17T10:22:35;16.13;;;14.93;;
21034;SDS011;10676;50.848;3.272;2022-09-17T10:25:17;21.60;;;19.75;;
21034;SDS011;10676;50.848;3.272;2022-09-17T10:27:45;16.25;;;15.07;;
21034;SDS011;10676;50.848;3.272;2022-09-17T10:32:41;13.07;;;10.60;;
21034;SDS011;10676;50.848;3.272;2022-09-17T10:37:46;17.95;;;16.23;;
21034;SDS011;10676;50.848;3.272;2022-09-17T10:42:43;16.55;;;15.10;;
21034;SDS011;10676;50.848;3.272;2022-09-17T10:45:29;13.35;;;10.15;;
21034;SDS011;10676;50.848;3.272;2022-09-17T10:47:55;10.65;;;5.90;;
21034;SDS011;10676;50.848;3.272;2022-09-17T10:50:28;10.10;;;8.77;;
21034;SDS011;10676;50.848;3.272;2022-09-17T10:53:06;13.55;;;12.23;;
21034;SDS011;10676;50.848;3.272;2022-09-17T10:55:45;18.70;;;17.15;;
21034;SDS011;10676;50.848;3.272;2022-09-17T11:26:42;19.17;;;17.45;;
21034;SDS011;10676;50.848;3.272;2022-09-17T11:29:23;23.27;;;21.48;;
21034;SDS011;10676;50.848;3.272;2022-09-17T11:32:13;1999.90;;;999.90;;
21034;SDS011;10676;50.848;3.272;2022-09-17T11:37:37;1999.90;;;999.90;;
21034;SDS011;10676;50.848;3.272;2022-09-17T11:42:41;1999.90;;;999.90;;
21034;SDS011;10676;50.848;3.272;2022-09-17T11:48:09;1999.90;;;999.90;;
21034;SDS011;10676;50.848;3.272;2022-09-17T11:50:43;1999.90;;;999.90;;
21034;SDS011;10676;50.848;3.272;2022-09-17T11:53:47;1999.90;;;999.90;;
21034;SDS011;10676;50.848;3.272;2022-09-17T11:56:46;1999.90;;;999.90;;
21034;SDS011;10676;50.848;3.272;2022-09-17T12:02:01;1999.90;;;999.90;;
21034;SDS011;10676;50.848;3.272;2022-09-17T12:04:48;1999.90;;;999.90;;
21034;SDS011;10676;50.848;3.272;2022-09-17T12:10:20;1999.90;;;999.90;;
21034;SDS011;10676;50.848;3.272;2022-09-17T12:12:58;1999.90;;;999.90;;
21034;SDS011;10676;50.848;3.272;2022-09-17T12:15:34;1999.90;;;999.90;;
21034;SDS011;10676;50.848;3.272;2022-09-17T12:20:56;1999.90;;;999.90;;
21034;SDS011;10676;50.848;3.272;2022-09-17T12:23:36;1999.90;;;999.90;;
21034;SDS011;10676;50.848;3.272;2022-09-17T12:26:24;1999.90;;;999.90;;
21034;SDS011;10676;50.848;3.272;2022-09-17T12:34:27;1999.90;;;999.90;;
21034;SDS011;10676;50.848;3.272;2022-09-17T12:39:59;1999.90;;;999.90;;
21034;SDS011;10676;50.848;3.272;2022-09-17T12:42:58;1999.90;;;999.90;;
21034;SDS011;10676;50.848;3.272;2022-09-17T12:53:59;22.52;;;20.23;;
21034;SDS011;10676;50.848;3.272;2022-09-17T12:59:43;17.27;;;15.38;;
21034;SDS011;10676;50.848;3.272;2022-09-17T13:13:04;14.27;;;12.52;;
21034;SDS011;10676;50.848;3.272;2022-09-17T13:23:31;13.23;;;12.15;;
21034;SDS011;10676;50.848;3.272;2022-09-17T13:25:59;12.77;;;11.88;;
21034;SDS011;10676;50.848;3.272;2022-09-17T13:28:36;19.00;;;10.70;;
21034;SDS011;10676;50.848;3.272;2022-09-17T13:31:19;11.00;;;8.85;;
21034;SDS011;10676;50.848;3.272;2022-09-17T13:34:11;11.52;;;9.48;;
21034;SDS011;10676;50.848;3.272;2022-09-17T13:36:54;11.20;;;8.52;;
21034;SDS011;10676;50.848;3.272;2022-09-17T13:42:04;10.20;;;8.45;;
21034;SDS011;10676;50.848;3.272;2022-09-17T13:47:34;15.35;;;8.85;;
21034;SDS011;10676;50.848;3.272;2022-09-17T13:50:09;16.17;;;9.40;;
21034;SDS011;10676;50.848;3.272;2022-09-17T13:52:48;13.55;;;10.07;;
21034;SDS011;10676;50.848;3.272;2022-09-17T14:13:52;15.20;;;9.27;;
21034;SDS011;10676;50.848;3.272;2022-09-17T14:22:11;10.63;;;6.05;;
21034;SDS011;10676;50.848;3.272;2022-09-17T14:37:59;8.13;;;7.03;;
21034;SDS011;10676;50.848;3.272;2022-09-17T14:41:06;14.75;;;6.10;;
21034;SDS011;10676;50.848;3.272;2022-09-17T14:43:48;14.57;;;7.93;;
21034;SDS011;10676;50.848;3.272;2022-09-17T14:46:17;8.27;;;5.53;;
21034;SDS011;10676;50.848;3.272;2022-09-17T14:48:47;9.02;;;5.15;;
21034;SDS011;10676;50.848;3.272;2022-09-17T14:53:42;7.55;;;5.82;;
21034;SDS011;10676;50.848;3.272;2022-09-17T14:56:09;5.97;;;5.43;;
21034;SDS011;10676;50.848;3.272;2022-09-17T14:58:39;8.07;;;6.55;;
21034;SDS011;10676;50.848;3.272;2022-09-17T15:01:18;8.00;;;7.28;;
21034;SDS011;10676;50.848;3.272;2022-09-17T15:03:46;7.30;;;6.80;;
21034;SDS011;10676;50.848;3.272;2022-09-17T15:06:21;10.77;;;8.07;;
21034;SDS011;10676;50.848;3.272;2022-09-17T15:08:47;9.55;;;6.75;;
21034;SDS011;10676;50.848;3.272;2022-09-17T15:11:13;7.00;;;5.25;;
21034;SDS011;10676;50.848;3.272;2022-09-17T15:13:47;10.85;;;6.57;;
21034;SDS011;10676;50.848;3.272;2022-09-17T15:16:16;9.57;;;6.20;;
21034;SDS011;10676;50.848;3.272;2022-09-17T15:18:55;7.65;;;6.82;;
21034;SDS011;10676;50.848;3.272;2022-09-17T15:27:21;9.73;;;6.68;;
21034;SDS011;10676;50.848;3.272;2022-09-17T15:30:28;12.45;;;7.78;;
21034;SDS011;10676;50.848;3.272;2022-09-17T15:35:28;7.93;;;6.97;;
21034;SDS011;10676;50.848;3.272;2022-09-17T15:43:01;8.10;;;6.30;;
21034;SDS011;10676;50.848;3.272;2022-09-17T15:45:28;11.02;;;6.28;;
21034;SDS011;10676;50.848;3.272;2022-09-17T15:47:59;14.48;;;8.52;;
21034;SDS011;10676;50.848;3.272;2022-09-17T15:55:34;8.60;;;6.40;;
21034;SDS011;10676;50.848;3.272;2022-09-17T15:58:20;10.77;;;6.65;;
21034;SDS011;10676;50.848;3.272;2022-09-17T16:00:46;12.52;;;6.10;;
21034;SDS011;10676;50.848;3.272;2022-09-17T16:06:02;8.95;;;5.22;;
21034;SDS011;10676;50.848;3.272;2022-09-17T16:08:32;7.68;;;5.20;;
21034;SDS011;10676;50.848;3.272;2022-09-17T16:10:58;9.48;;;5.40;;
21034;SDS011;10676;50.848;3.272;2022-09-17T16:13:24;10.02;;;5.43;;
21034;SDS011;10676;50.848;3.272;2022-09-17T16:15:49;7.45;;;4.95;;
21034;SDS011;10676;50.848;3.272;2022-09-17T16:18:15;6.05;;;4.75;;
21034;SDS011;10676;50.848;3.272;2022-09-17T16:20:41;6.45;;;5.63;;
21034;SDS011;10676;50.848;3.272;2022-09-17T16:23:07;11.18;;;6.00;;
21034;SDS011;10676;50.848;3.272;2022-09-17T16:25:32;12.38;;;4.80;;
21034;SDS011;10676;50.848;3.272;2022-09-17T16:27:59;9.05;;;6.10;;
21034;SDS011;10676;50.848;3.272;2022-09-17T16:30:42;9.25;;;5.80;;
21034;SDS011;10676;50.848;3.272;2022-09-17T16:33:13;7.95;;;5.07;;
21034;SDS011;10676;50.848;3.272;2022-09-17T16:35:40;9.13;;;6.00;;
21034;SDS011;10676;50.848;3.272;2022-09-17T16:38:06;10.07;;;5.80;;
21034;SDS011;10676;50.848;3.272;2022-09-17T16:40:33;6.07;;;4.78;;
21034;SDS011;10676;50.848;3.272;2022-09-17T16:43:04;6.72;;;4.50;;
21034;SDS011;10676;50.848;3.272;2022-09-17T16:45:30;10.88;;;5.35;;
21034;SDS011;10676;50.848;3.272;2022-09-17T16:47:56;7.80;;;5.28;;
21034;SDS011;10676;50.848;3.272;2022-09-17T16:50:22;8.43;;;6.00;;
21034;SDS011;10676;50.848;3.272;2022-09-17T16:52:48;10.05;;;6.50;;
21034;SDS011;10676;50.848;3.272;2022-09-17T16:55:14;8.90;;;6.05;;
21034;SDS011;10676;50.848;3.272;2022-09-17T16:57:41;9.88;;;6.25;;
21034;SDS011;10676;50.848;3.272;2022-09-17T17:00:08;6.95;;;5.75;;
21034;SDS011;10676;50.848;3.272;2022-09-17T17:02:43;10.45;;;6.95;;
21034;SDS011;10676;50.848;3.272;2022-09-17T17:05:15;7.93;;;7.22;;
21034;SDS011;10676;50.848;3.272;2022-09-17T17:07:41;9.45;;;6.25;;
21034;SDS011;10676;50.848;3.272;2022-09-17T17:10:06;11.05;;;5.45;;
21034;SDS011;10676;50.848;3.272;2022-09-17T17:12:35;8.38;;;6.07;;
21034;SDS011;10676;50.848;3.272;2022-09-17T17:15:02;10.05;;;6.20;;
21034;SDS011;10676;50.848;3.272;2022-09-17T17:17:30;9.85;;;6.13;;
21034;SDS011;10676;50.848;3.272;2022-09-17T17:19:57;7.10;;;5.57;;
21034;SDS011;10676;50.848;3.272;2022-09-17T17:22:22;14.27;;;9.40;;
21034;SDS011;10676;50.848;3.272;2022-09-17T17:24:48;8.90;;;7.53;;
21034;SDS011;10676;50.848;3.272;2022-09-17T17:27:14;10.70;;;7.10;;
21034;SDS011;10676;50.848;3.272;2022-09-17T17:29:40;10.38;;;7.03;;
21034;SDS011;10676;50.848;3.272;2022-09-17T17:32:05;11.13;;;6.03;;
21034;SDS011;10676;50.848;3.272;2022-09-17T17:34:31;12.23;;;5.72;;
21034;SDS011;10676;50.848;3.272;2022-09-17T17:36:57;8.38;;;5.80;;
21034;SDS011;10676;50.848;3.272;2022-09-17T17:39:23;10.45;;;6.25;;
21034;SDS011;10676;50.848;3.272;2022-09-17T17:41:49;6.28;;;5.78;;
21034;SDS011;10676;50.848;3.272;2022-09-17T17:44:15;9.02;;;6.45;;
21034;SDS011;10676;50.848;3.272;2022-09-17T17:46:40;9.63;;;5.72;;
21034;SDS011;10676;50.848;3.272;2022-09-17T17:49:06;8.15;;;6.53;;
21034;SDS011;10676;50.848;3.272;2022-09-17T17:51:32;11.88;;;5.65;;
21034;SDS011;10676;50.848;3.272;2022-09-17T17:53:59;7.00;;;5.63;;
21034;SDS011;10676;50.848;3.272;2022-09-17T17:56:24;7.65;;;6.30;;
21034;SDS011;10676;50.848;3.272;2022-09-17T17:58:54;10.85;;;6.60;;
21034;SDS011;10676;50.848;3.272;2022-09-17T18:01:27;11.65;;;7.10;;
21034;SDS011;10676;50.848;3.272;2022-09-17T18:03:54;10.18;;;7.22;;
21034;SDS011;10676;50.848;3.272;2022-09-17T18:06:21;13.30;;;6.22;;
21034;SDS011;10676;50.848;3.272;2022-09-17T18:08:46;13.93;;;7.32;;
21034;SDS011;10676;50.848;3.272;2022-09-17T18:11:12;7.45;;;6.63;;
21034;SDS011;10676;50.848;3.272;2022-09-17T18:13:38;10.55;;;6.70;;
21034;SDS011;10676;50.848;3.272;2022-09-17T18:16:05;11.43;;;6.45;;
21034;SDS011;10676;50.848;3.272;2022-09-17T18:18:37;9.00;;;7.50;;
21034;SDS011;10676;50.848;3.272;2022-09-17T18:21:04;8.73;;;5.95;;
21034;SDS011;10676;50.848;3.272;2022-09-17T18:23:35;8.35;;;5.90;;
21034;SDS011;10676;50.848;3.272;2022-09-17T18:26:02;6.63;;;5.53;;
21034;SDS011;10676;50.848;3.272;2022-09-17T18:28:30;6.50;;;6.10;;
21034;SDS011;10676;50.848;3.272;2022-09-17T18:31:07;9.65;;;6.45;;
21034;SDS011;10676;50.848;3.272;2022-09-17T18:33:39;11.63;;;6.70;;
21034;SDS011;10676;50.848;3.272;2022-09-17T18:36:05;8.02;;;6.40;;
21034;SDS011;10676;50.848;3.272;2022-09-17T18:38:31;12.40;;;6.57;;
21034;SDS011;10676;50.848;3.272;2022-09-17T18:41:07;10.73;;;7.18;;
21034;SDS011;10676;50.848;3.272;2022-09-17T18:43:35;7.50;;;6.80;;
21034;SDS011;10676;50.848;3.272;2022-09-17T18:46:01;8.27;;;7.35;;
21034;SDS011;10676;50.848;3.272;2022-09-17T18:48:27;7.78;;;7.03;;